sensor_id;sensor_type;location;lat;lon;timestamp;temperature;humidity
17795;DHT22;9021;50.882;4.326;2023-03-01T00:01:33;4.20;82.40
17795;DHT22;9021;50.882;4.326;2023-03-01T00:03:59;4.00;82.60
17795;DHT22;9021;50.882;4.326;2023-03-01T00:06:26;4.00;83.10
17795;DHT22;9021;50.882;4.326;2023-03-01T00:08:52;3.80;83.90
17795;DHT22;9021;50.882;4.326;2023-03-01T00:11:29;3.90;83.80
17795;DHT22;9021;50.882;4.326;2023-03-01T00:13:58;3.90;83.90
17795;DHT22;9021;50.882;4.326;2023-03-01T00:16:41;3.90;83.90
17795;DHT22;9021;50.882;4.326;2023-03-01T00:19:11;3.90;83.70
17795;DHT22;9021;50.882;4.326;2023-03-01T00:21:37;4.00;83.20
17795;DHT22;9021;50.882;4.326;2023-03-01T00:24:04;4.00;83.20
17795;DHT22;9021;50.882;4.326;2023-03-01T00:26:29;3.90;83.80
17795;DHT22;9021;50.882;4.326;2023-03-01T00:28:57;3.90;84.00
17795;DHT22;9021;50.882;4.326;2023-03-01T00:31:26;3.70;84.70
17795;DHT22;9021;50.882;4.326;2023-03-01T00:33:54;3.80;84.30
17795;DHT22;9021;50.882;4.326;2023-03-01T00:36:28;3.80;84.30
17795;DHT22;9021;50.882;4.326;2023-03-01T00:38:54;3.80;84.50
17795;DHT22;9021;50.882;4.326;2023-03-01T00:41:20;3.70;84.60
17795;DHT22;9021;50.882;4.326;2023-03-01T00:43:48;3.70;85.00
17795;DHT22;9021;50.882;4.326;2023-03-01T00:46:17;3.70;84.60
17795;DHT22;9021;50.882;4.326;2023-03-01T00:48:43;3.80;84.70
17795;DHT22;9021;50.882;4.326;2023-03-01T00:51:18;3.80;84.50
17795;DHT22;9021;50.882;4.326;2023-03-01T00:53:44;3.70;84.90
17795;DHT22;9021;50.882;4.326;2023-03-01T00:56:10;3.70;84.90
17795;DHT22;9021;50.882;4.326;2023-03-01T00:58:37;3.60;85.10
17795;DHT22;9021;50.882;4.326;2023-03-01T01:01:12;3.60;85.00
17795;DHT22;9021;50.882;4.326;2023-03-01T01:03:58;3.60;85.70
17795;DHT22;9021;50.882;4.326;2023-03-01T01:06:30;3.60;86.30
17795;DHT22;9021;50.882;4.326;2023-03-01T01:08:56;3.40;86.40
17795;DHT22;9021;50.882;4.326;2023-03-01T01:11:25;3.40;86.30
17795;DHT22;9021;50.882;4.326;2023-03-01T01:13:51;3.40;86.40
17795;DHT22;9021;50.882;4.326;2023-03-01T01:16:18;3.40;86.50
17795;DHT22;9021;50.882;4.326;2023-03-01T01:18:45;3.50;86.20
17795;DHT22;9021;50.882;4.326;2023-03-01T01:21:14;3.50;85.90
17795;DHT22;9021;50.882;4.326;2023-03-01T01:23:41;3.40;86.30
17795;DHT22;9021;50.882;4.326;2023-03-01T01:26:09;3.30;86.90
17795;DHT22;9021;50.882;4.326;2023-03-01T01:28:35;3.30;87.10
17795;DHT22;9021;50.882;4.326;2023-03-01T01:31:01;2.00;86.30
17795;DHT22;9021;50.882;4.326;2023-03-01T01:33:27;3.40;86.30
17795;DHT22;9021;50.882;4.326;2023-03-01T01:35:53;3.40;86.50
17795;DHT22;9021;50.882;4.326;2023-03-01T01:38:19;3.40;86.80
17795;DHT22;9021;50.882;4.326;2023-03-01T01:40:45;3.40;86.70
17795;DHT22;9021;50.882;4.326;2023-03-01T01:43:33;3.30;86.30
17795;DHT22;9021;50.882;4.326;2023-03-01T01:46:06;3.30;86.50
17795;DHT22;9021;50.882;4.326;2023-03-01T01:48:45;4.70;87.50
17795;DHT22;9021;50.882;4.326;2023-03-01T01:51:16;3.10;87.30
17795;DHT22;9021;50.882;4.326;2023-03-01T01:53:44;3.00;87.10
17795;DHT22;9021;50.882;4.326;2023-03-01T01:56:13;3.20;86.80
17795;DHT22;9021;50.882;4.326;2023-03-01T01:58:40;3.20;86.60
17795;DHT22;9021;50.882;4.326;2023-03-01T02:01:07;3.20;87.00
17795;DHT22;9021;50.882;4.326;2023-03-01T02:03:34;3.20;87.00
17795;DHT22;9021;50.882;4.326;2023-03-01T02:06:34;3.20;86.90
17795;DHT22;9021;50.882;4.326;2023-03-01T02:09:06;3.00;87.10
17795;DHT22;9021;50.882;4.326;2023-03-01T02:11:33;3.00;87.80
17795;DHT22;9021;50.882;4.326;2023-03-01T02:13:59;3.00;87.60
17795;DHT22;9021;50.882;4.326;2023-03-01T02:16:25;3.10;87.30
17795;DHT22;9021;50.882;4.326;2023-03-01T02:18:52;3.00;87.70
17795;DHT22;9021;50.882;4.326;2023-03-01T02:24:03;3.00;88.10
17795;DHT22;9021;50.882;4.326;2023-03-01T02:26:40;3.00;88.10
17795;DHT22;9021;50.882;4.326;2023-03-01T02:29:07;3.00;88.70
17795;DHT22;9021;50.882;4.326;2023-03-01T02:31:33;3.00;88.10
17795;DHT22;9021;50.882;4.326;2023-03-01T02:34:14;3.00;88.40
17795;DHT22;9021;50.882;4.326;2023-03-01T02:36:56;2.90;88.60
17795;DHT22;9021;50.882;4.326;2023-03-01T02:39:32;3.00;88.30
17795;DHT22;9021;50.882;4.326;2023-03-01T02:41:59;2.90;88.40
17795;DHT22;9021;50.882;4.326;2023-03-01T02:44:26;2.80;89.00
17795;DHT22;9021;50.882;4.326;2023-03-01T02:46:53;2.90;88.70
17795;DHT22;9021;50.882;4.326;2023-03-01T02:57:19;2.80;88.90
17795;DHT22;9021;50.882;4.326;2023-03-01T02:59:46;2.70;89.20
17795;DHT22;9021;50.882;4.326;2023-03-01T03:05:23;2.70;89.50
17795;DHT22;9021;50.882;4.326;2023-03-01T03:07:50;2.80;89.20
17795;DHT22;9021;50.882;4.326;2023-03-01T03:10:18;2.70;89.20
17795;DHT22;9021;50.882;4.326;2023-03-01T03:12:52;2.70;89.30
17795;DHT22;9021;50.882;4.326;2023-03-01T03:15:18;2.60;89.80
17795;DHT22;9021;50.882;4.326;2023-03-01T03:17:44;2.60;90.00
17795;DHT22;9021;50.882;4.326;2023-03-01T03:20:14;2.60;90.00
17795;DHT22;9021;50.882;4.326;2023-03-01T03:22:48;3.50;90.30
17795;DHT22;9021;50.882;4.326;2023-03-01T03:25:14;2.60;90.00
17795;DHT22;9021;50.882;4.326;2023-03-01T03:27:41;2.50;90.00
17795;DHT22;9021;50.882;4.326;2023-03-01T03:30:09;2.40;90.20
17795;DHT22;9021;50.882;4.326;2023-03-01T03:32:36;2.40;90.10
17795;DHT22;9021;50.882;4.326;2023-03-01T03:35:06;2.50;90.10
17795;DHT22;9021;50.882;4.326;2023-03-01T03:37:41;2.60;90.10
17795;DHT22;9021;50.882;4.326;2023-03-01T03:40:25;2.60;90.00
17795;DHT22;9021;50.882;4.326;2023-03-01T03:42:51;2.50;90.20
17795;DHT22;9021;50.882;4.326;2023-03-01T03:45:17;2.30;90.60
17795;DHT22;9021;50.882;4.326;2023-03-01T03:47:43;2.30;90.50
17795;DHT22;9021;50.882;4.326;2023-03-01T03:50:11;2.30;90.50
17795;DHT22;9021;50.882;4.326;2023-03-01T03:52:36;2.40;90.50
17795;DHT22;9021;50.882;4.326;2023-03-01T03:55:03;2.40;90.50
17795;DHT22;9021;50.882;4.326;2023-03-01T03:57:29;2.50;90.40
17795;DHT22;9021;50.882;4.326;2023-03-01T03:59:54;2.40;90.50
17795;DHT22;9021;50.882;4.326;2023-03-01T04:02:20;2.30;90.60
17795;DHT22;9021;50.882;4.326;2023-03-01T04:04:49;2.40;90.70
17795;DHT22;9021;50.882;4.326;2023-03-01T04:07:16;3.10;90.80
17795;DHT22;9021;50.882;4.326;2023-03-01T04:09:42;2.40;90.70
17795;DHT22;9021;50.882;4.326;2023-03-01T04:12:09;2.30;90.90
17795;DHT22;9021;50.882;4.326;2023-03-01T04:14:35;2.30;90.80
17795;DHT22;9021;50.882;4.326;2023-03-01T04:17:00;2.30;90.70
17795;DHT22;9021;50.882;4.326;2023-03-01T04:19:26;2.20;90.80
17795;DHT22;9021;50.882;4.326;2023-03-01T04:21:53;2.10;91.00
17795;DHT22;9021;50.882;4.326;2023-03-01T04:24:19;2.10;91.10
17795;DHT22;9021;50.882;4.326;2023-03-01T04:26:44;2.10;91.00
17795;DHT22;9021;50.882;4.326;2023-03-01T04:29:10;2.30;90.70
17795;DHT22;9021;50.882;4.326;2023-03-01T04:31:35;2.30;90.70
17795;DHT22;9021;50.882;4.326;2023-03-01T04:34:01;2.30;90.70
17795;DHT22;9021;50.882;4.326;2023-03-01T04:36:28;2.30;90.70
17795;DHT22;9021;50.882;4.326;2023-03-01T04:38:55;2.20;91.00
17795;DHT22;9021;50.882;4.326;2023-03-01T04:41:23;2.20;91.00
17795;DHT22;9021;50.882;4.326;2023-03-01T04:43:49;2.10;91.20
17795;DHT22;9021;50.882;4.326;2023-03-01T04:46:17;2.10;91.10
17795;DHT22;9021;50.882;4.326;2023-03-01T04:48:45;2.30;91.00
17795;DHT22;9021;50.882;4.326;2023-03-01T04:51:12;2.30;91.20
17795;DHT22;9021;50.882;4.326;2023-03-01T04:53:42;2.30;91.10
17795;DHT22;9021;50.882;4.326;2023-03-01T04:56:08;2.10;91.30
17795;DHT22;9021;50.882;4.326;2023-03-01T04:58:34;2.10;91.50
17795;DHT22;9021;50.882;4.326;2023-03-01T05:00:59;2.20;91.40
17795;DHT22;9021;50.882;4.326;2023-03-01T05:03:25;2.20;91.40
17795;DHT22;9021;50.882;4.326;2023-03-01T05:05:52;2.20;91.40
17795;DHT22;9021;50.882;4.326;2023-03-01T05:08:18;2.20;91.30
17795;DHT22;9021;50.882;4.326;2023-03-01T05:10:47;2.30;91.20
17795;DHT22;9021;50.882;4.326;2023-03-01T05:13:14;2.20;91.40
17795;DHT22;9021;50.882;4.326;2023-03-01T05:15:47;2.10;91.70
17795;DHT22;9021;50.882;4.326;2023-03-01T05:18:12;2.00;91.80
17795;DHT22;9021;50.882;4.326;2023-03-01T05:20:38;2.00;91.80
17795;DHT22;9021;50.882;4.326;2023-03-01T05:23:04;2.00;91.80
17795;DHT22;9021;50.882;4.326;2023-03-01T05:25:31;2.00;91.80
17795;DHT22;9021;50.882;4.326;2023-03-01T05:27:59;2.00;91.80
17795;DHT22;9021;50.882;4.326;2023-03-01T05:30:28;2.00;91.90
17795;DHT22;9021;50.882;4.326;2023-03-01T05:32:54;2.00;91.70
17795;DHT22;9021;50.882;4.326;2023-03-01T05:35:21;2.10;91.70
17795;DHT22;9021;50.882;4.326;2023-03-01T05:37:48;2.10;91.50
17795;DHT22;9021;50.882;4.326;2023-03-01T05:40:19;2.10;91.60
17795;DHT22;9021;50.882;4.326;2023-03-01T05:42:51;2.20;91.50
17795;DHT22;9021;50.882;4.326;2023-03-01T05:45:17;2.20;91.50
17795;DHT22;9021;50.882;4.326;2023-03-01T05:47:44;2.20;91.60
17795;DHT22;9021;50.882;4.326;2023-03-01T05:50:15;2.20;91.50
17795;DHT22;9021;50.882;4.326;2023-03-01T05:52:46;2.10;91.60
17795;DHT22;9021;50.882;4.326;2023-03-01T05:55:11;2.00;91.90
17795;DHT22;9021;50.882;4.326;2023-03-01T05:57:37;1.90;92.00
17795;DHT22;9021;50.882;4.326;2023-03-01T06:00:03;1.90;92.10
17795;DHT22;9021;50.882;4.326;2023-03-01T06:02:28;1.90;92.00
17795;DHT22;9021;50.882;4.326;2023-03-01T06:04:55;1.90;92.10
17795;DHT22;9021;50.882;4.326;2023-03-01T06:07:21;2.00;92.20
17795;DHT22;9021;50.882;4.326;2023-03-01T06:09:46;2.00;92.10
17795;DHT22;9021;50.882;4.326;2023-03-01T06:12:12;2.00;92.00
17795;DHT22;9021;50.882;4.326;2023-03-01T06:14:37;2.00;91.80
17795;DHT22;9021;50.882;4.326;2023-03-01T06:17:03;2.10;92.00
17795;DHT22;9021;50.882;4.326;2023-03-01T06:19:29;2.00;92.00
17795;DHT22;9021;50.882;4.326;2023-03-01T06:21:54;1.90;92.30
17795;DHT22;9021;50.882;4.326;2023-03-01T06:24:20;1.90;92.30
17795;DHT22;9021;50.882;4.326;2023-03-01T06:26:45;1.90;92.20
17795;DHT22;9021;50.882;4.326;2023-03-01T06:29:11;2.00;92.20
17795;DHT22;9021;50.882;4.326;2023-03-01T06:31:37;2.00;92.00
17795;DHT22;9021;50.882;4.326;2023-03-01T06:34:02;2.00;91.90
17795;DHT22;9021;50.882;4.326;2023-03-01T06:36:28;2.00;92.20
17795;DHT22;9021;50.882;4.326;2023-03-01T06:38:54;1.90;92.30
17795;DHT22;9021;50.882;4.326;2023-03-01T06:41:19;2.00;92.50
17795;DHT22;9021;50.882;4.326;2023-03-01T06:43:45;1.90;92.60
17795;DHT22;9021;50.882;4.326;2023-03-01T06:46:11;1.90;92.70
17795;DHT22;9021;50.882;4.326;2023-03-01T06:48:37;1.90;92.40
17795;DHT22;9021;50.882;4.326;2023-03-01T06:51:03;2.00;92.50
17795;DHT22;9021;50.882;4.326;2023-03-01T06:53:29;2.00;92.30
17795;DHT22;9021;50.882;4.326;2023-03-01T06:55:58;2.10;92.30
17795;DHT22;9021;50.882;4.326;2023-03-01T06:58:25;2.20;92.40
17795;DHT22;9021;50.882;4.326;2023-03-01T07:00:51;2.40;92.30
17795;DHT22;9021;50.882;4.326;2023-03-01T07:03:17;2.50;92.00
17795;DHT22;9021;50.882;4.326;2023-03-01T07:05:42;2.80;91.30
17795;DHT22;9021;50.882;4.326;2023-03-01T07:08:09;2.90;91.30
17795;DHT22;9021;50.882;4.326;2023-03-01T07:10:35;3.20;91.30
17795;DHT22;9021;50.882;4.326;2023-03-01T07:13:01;3.60;91.00
17795;DHT22;9021;50.882;4.326;2023-03-01T07:15:27;3.80;90.10
17795;DHT22;9021;50.882;4.326;2023-03-01T07:17:53;4.20;90.00
17795;DHT22;9021;50.882;4.326;2023-03-01T07:20:19;4.70;89.50
17795;DHT22;9021;50.882;4.326;2023-03-01T07:22:55;5.50;88.20
17795;DHT22;9021;50.882;4.326;2023-03-01T07:25:25;6.40;84.80
17795;DHT22;9021;50.882;4.326;2023-03-01T07:27:51;7.40;82.30
17795;DHT22;9021;50.882;4.326;2023-03-01T07:30:17;8.20;80.10
17795;DHT22;9021;50.882;4.326;2023-03-01T07:32:43;8.60;78.40
17795;DHT22;9021;50.882;4.326;2023-03-01T07:35:10;8.40;77.60
17795;DHT22;9021;50.882;4.326;2023-03-01T07:37:36;8.00;78.60
17795;DHT22;9021;50.882;4.326;2023-03-01T07:40:02;8.10;79.10
17795;DHT22;9021;50.882;4.326;2023-03-01T07:42:27;8.50;78.00
17795;DHT22;9021;50.882;4.326;2023-03-01T07:44:53;9.10;77.50
17795;DHT22;9021;50.882;4.326;2023-03-01T07:47:19;9.50;76.10
17795;DHT22;9021;50.882;4.326;2023-03-01T07:49:44;9.80;75.20
17795;DHT22;9021;50.882;4.326;2023-03-01T07:52:11;10.40;74.20
17795;DHT22;9021;50.882;4.326;2023-03-01T07:54:37;10.70;73.10
17795;DHT22;9021;50.882;4.326;2023-03-01T07:57:03;11.20;72.50
17795;DHT22;9021;50.882;4.326;2023-03-01T07:59:28;11.70;71.10
17795;DHT22;9021;50.882;4.326;2023-03-01T08:01:55;12.20;70.00
17795;DHT22;9021;50.882;4.326;2023-03-01T08:04:21;12.80;69.60
17795;DHT22;9021;50.882;4.326;2023-03-01T08:06:47;13.40;67.90
17795;DHT22;9021;50.882;4.326;2023-03-01T08:09:13;13.00;67.40
17795;DHT22;9021;50.882;4.326;2023-03-01T08:11:38;12.90;67.30
17795;DHT22;9021;50.882;4.326;2023-03-01T08:14:05;12.70;67.70
17795;DHT22;9021;50.882;4.326;2023-03-01T08:16:30;12.80;67.60
17795;DHT22;9021;50.882;4.326;2023-03-01T08:18:57;12.80;67.60
17795;DHT22;9021;50.882;4.326;2023-03-01T08:21:26;13.90;67.90
17795;DHT22;9021;50.882;4.326;2023-03-01T08:23:52;13.10;66.70
17795;DHT22;9021;50.882;4.326;2023-03-01T08:26:19;12.90;66.30
17795;DHT22;9021;50.882;4.326;2023-03-01T08:28:46;12.70;67.30
17795;DHT22;9021;50.882;4.326;2023-03-01T08:31:24;12.40;66.90
17795;DHT22;9021;50.882;4.326;2023-03-01T08:33:52;12.30;67.40
17795;DHT22;9021;50.882;4.326;2023-03-01T08:36:24;12.10;67.40
17795;DHT22;9021;50.882;4.326;2023-03-01T08:38:51;11.90;67.60
17795;DHT22;9021;50.882;4.326;2023-03-01T08:41:17;11.80;68.10
17795;DHT22;9021;50.882;4.326;2023-03-01T08:43:44;11.00;68.60
17795;DHT22;9021;50.882;4.326;2023-03-01T08:46:09;11.20;69.70
17795;DHT22;9021;50.882;4.326;2023-03-01T08:48:35;10.70;69.80
17795;DHT22;9021;50.882;4.326;2023-03-01T08:51:09;10.70;70.10
17795;DHT22;9021;50.882;4.326;2023-03-01T08:53:34;10.60;69.30
17795;DHT22;9021;50.882;4.326;2023-03-01T08:56:00;10.40;70.40
17795;DHT22;9021;50.882;4.326;2023-03-01T08:58:28;10.10;70.60
17795;DHT22;9021;50.882;4.326;2023-03-01T09:00:54;9.40;71.00
17795;DHT22;9021;50.882;4.326;2023-03-01T09:03:22;9.60;71.80
17795;DHT22;9021;50.882;4.326;2023-03-01T09:05:47;9.10;72.40
17795;DHT22;9021;50.882;4.326;2023-03-01T09:08:16;8.80;73.30
17795;DHT22;9021;50.882;4.326;2023-03-01T09:10:41;8.60;73.40
17795;DHT22;9021;50.882;4.326;2023-03-01T09:13:07;8.40;73.90
17795;DHT22;9021;50.882;4.326;2023-03-01T09:15:33;8.40;74.20
17795;DHT22;9021;50.882;4.326;2023-03-01T09:17:59;8.50;74.00
17795;DHT22;9021;50.882;4.326;2023-03-01T09:20:25;8.60;73.90
17795;DHT22;9021;50.882;4.326;2023-03-01T09:22:50;8.30;74.20
17795;DHT22;9021;50.882;4.326;2023-03-01T09:25:16;8.00;74.20
17795;DHT22;9021;50.882;4.326;2023-03-01T09:27:42;8.00;74.60
17795;DHT22;9021;50.882;4.326;2023-03-01T09:30:08;8.10;75.30
17795;DHT22;9021;50.882;4.326;2023-03-01T09:32:33;8.00;74.90
17795;DHT22;9021;50.882;4.326;2023-03-01T09:34:59;8.30;74.70
17795;DHT22;9021;50.882;4.326;2023-03-01T09:37:34;8.40;74.80
17795;DHT22;9021;50.882;4.326;2023-03-01T09:40:00;8.50;74.70
17795;DHT22;9021;50.882;4.326;2023-03-01T09:42:27;8.60;73.40
17795;DHT22;9021;50.882;4.326;2023-03-01T09:44:59;8.50;73.50
17795;DHT22;9021;50.882;4.326;2023-03-01T09:47:34;8.60;73.70
17795;DHT22;9021;50.882;4.326;2023-03-01T09:50:13;8.70;73.70
17795;DHT22;9021;50.882;4.326;2023-03-01T09:55:19;8.90;74.00
17795;DHT22;9021;50.882;4.326;2023-03-01T09:57:47;8.80;73.20
17795;DHT22;9021;50.882;4.326;2023-03-01T10:03:08;8.00;74.50
17795;DHT22;9021;50.882;4.326;2023-03-01T10:05:53;8.10;74.80
17795;DHT22;9021;50.882;4.326;2023-03-01T10:08:38;8.30;73.90
17795;DHT22;9021;50.882;4.326;2023-03-01T10:11:20;8.90;74.20
17795;DHT22;9021;50.882;4.326;2023-03-01T10:13:52;9.60;72.80
17795;DHT22;9021;50.882;4.326;2023-03-01T10:16:28;9.90;72.10
17795;DHT22;9021;50.882;4.326;2023-03-01T10:19:02;10.60;71.60
17795;DHT22;9021;50.882;4.326;2023-03-01T10:21:29;10.80;70.40
17795;DHT22;9021;50.882;4.326;2023-03-01T10:24:17;11.00;69.20
17795;DHT22;9021;50.882;4.326;2023-03-01T10:26:56;11.30;68.60
17795;DHT22;9021;50.882;4.326;2023-03-01T10:32:13;12.00;67.80
17795;DHT22;9021;50.882;4.326;2023-03-01T10:34:39;12.20;67.00
17795;DHT22;9021;50.882;4.326;2023-03-01T10:37:14;12.20;67.40
17795;DHT22;9021;50.882;4.326;2023-03-01T10:42:29;12.40;67.00
17795;DHT22;9021;50.882;4.326;2023-03-01T10:44:56;12.20;67.00
17795;DHT22;9021;50.882;4.326;2023-03-01T10:47:24;12.40;67.60
17795;DHT22;9021;50.882;4.326;2023-03-01T10:49:56;12.40;66.30
17795;DHT22;9021;50.882;4.326;2023-03-01T10:52:25;12.00;67.20
17795;DHT22;9021;50.882;4.326;2023-03-01T10:55:01;12.20;66.80
17795;DHT22;9021;50.882;4.326;2023-03-01T10:57:33;12.80;66.00
17795;DHT22;9021;50.882;4.326;2023-03-01T11:02:48;14.20;64.20
17795;DHT22;9021;50.882;4.326;2023-03-01T11:07:53;16.10;62.10
17795;DHT22;9021;50.882;4.326;2023-03-01T11:10:31;17.10;60.70
17795;DHT22;9021;50.882;4.326;2023-03-01T11:13:27;17.80;59.90
17795;DHT22;9021;50.882;4.326;2023-03-01T11:16:01;18.70;58.70
17795;DHT22;9021;50.882;4.326;2023-03-01T11:18:29;19.40;57.70
17795;DHT22;9021;50.882;4.326;2023-03-01T11:20:55;20.40;55.90
17795;DHT22;9021;50.882;4.326;2023-03-01T11:23:21;21.00;54.60
17795;DHT22;9021;50.882;4.326;2023-03-01T11:25:56;20.30;54.90
17795;DHT22;9021;50.882;4.326;2023-03-01T11:28:23;19.00;55.70
17795;DHT22;9021;50.882;4.326;2023-03-01T11:31:07;18.40;56.70
17795;DHT22;9021;50.882;4.326;2023-03-01T11:33:59;17.80;57.20
17795;DHT22;9021;50.882;4.326;2023-03-01T11:36:39;18.40;56.70
17795;DHT22;9021;50.882;4.326;2023-03-01T11:42:00;21.00;54.20
17795;DHT22;9021;50.882;4.326;2023-03-01T11:44:29;21.10;53.30
17795;DHT22;9021;50.882;4.326;2023-03-01T11:47:17;21.00;52.80
17795;DHT22;9021;50.882;4.326;2023-03-01T11:53:01;21.90;52.60
17795;DHT22;9021;50.882;4.326;2023-03-01T11:55:56;23.00;51.40
17795;DHT22;9021;50.882;4.326;2023-03-01T12:07:10;23.90;50.20
17795;DHT22;9021;50.882;4.326;2023-03-01T12:10:15;24.90;49.50
17795;DHT22;9021;50.882;4.326;2023-03-01T12:15:40;25.20;48.30
17795;DHT22;9021;50.882;4.326;2023-03-01T12:18:25;25.50;47.70
17795;DHT22;9021;50.882;4.326;2023-03-01T12:21:02;25.30;47.40
17795;DHT22;9021;50.882;4.326;2023-03-01T12:23:57;25.30;47.90
17795;DHT22;9021;50.882;4.326;2023-03-01T12:34:59;22.40;49.10
17795;DHT22;9021;50.882;4.326;2023-03-01T12:37:19;21.80;48.70
17795;DHT22;9021;50.882;4.326;2023-03-01T12:43:10;23.80;47.90
17795;DHT22;9021;50.882;4.326;2023-03-01T12:48:58;21.60;48.30
17795;DHT22;9021;50.882;4.326;2023-03-01T12:51:27;21.70;48.90
17795;DHT22;9021;50.882;4.326;2023-03-01T12:54:01;22.80;48.80
17795;DHT22;9021;50.882;4.326;2023-03-01T12:56:32;22.60;48.50
17795;DHT22;9021;50.882;4.326;2023-03-01T13:04:50;21.80;49.10
17795;DHT22;9021;50.882;4.326;2023-03-01T13:07:44;21.90;48.70
17795;DHT22;9021;50.882;4.326;2023-03-01T13:10:41;22.60;48.60
17795;DHT22;9021;50.882;4.326;2023-03-01T13:13:28;22.20;48.50
17795;DHT22;9021;50.882;4.326;2023-03-01T13:15:55;22.50;49.00
17795;DHT22;9021;50.882;4.326;2023-03-01T13:21:00;21.80;48.90
17795;DHT22;9021;50.882;4.326;2023-03-01T13:23:28;20.80;49.70
17795;DHT22;9021;50.882;4.326;2023-03-01T13:33:45;21.70;49.70
17795;DHT22;9021;50.882;4.326;2023-03-01T13:36:45;20.80;50.60
17795;DHT22;9021;50.882;4.326;2023-03-01T13:39:01;19.90;51.00
17795;DHT22;9021;50.882;4.326;2023-03-01T13:49:25;20.40;50.00
17795;DHT22;9021;50.882;4.326;2023-03-01T13:51:52;20.00;50.40
17795;DHT22;9021;50.882;4.326;2023-03-01T13:54:26;19.70;50.50
17795;DHT22;9021;50.882;4.326;2023-03-01T13:56:54;19.50;51.00
17795;DHT22;9021;50.882;4.326;2023-03-01T13:59:22;19.00;52.10
17795;DHT22;9021;50.882;4.326;2023-03-01T14:01:59;19.00;51.60
17795;DHT22;9021;50.882;4.326;2023-03-01T14:04:32;18.60;52.30
17795;DHT22;9021;50.882;4.326;2023-03-01T14:07:18;18.40;53.00
17795;DHT22;9021;50.882;4.326;2023-03-01T14:09:45;18.20;53.00
17795;DHT22;9021;50.882;4.326;2023-03-01T14:12:32;17.80;52.80
17795;DHT22;9021;50.882;4.326;2023-03-01T14:15:04;17.50;53.40
17795;DHT22;9021;50.882;4.326;2023-03-01T14:18:02;17.30;53.90
17795;DHT22;9021;50.882;4.326;2023-03-01T14:20:38;17.10;53.60
17795;DHT22;9021;50.882;4.326;2023-03-01T14:23:11;17.10;53.90
17795;DHT22;9021;50.882;4.326;2023-03-01T14:25:38;17.00;54.50
17795;DHT22;9021;50.882;4.326;2023-03-01T14:28:32;16.50;54.60
17795;DHT22;9021;50.882;4.326;2023-03-01T14:31:03;16.10;56.60
17795;DHT22;9021;50.882;4.326;2023-03-01T14:33:31;15.70;55.70
17795;DHT22;9021;50.882;4.326;2023-03-01T14:36:04;15.00;55.90
17795;DHT22;9021;50.882;4.326;2023-03-01T14:41:00;14.70;56.80
17795;DHT22;9021;50.882;4.326;2023-03-01T14:43:29;14.40;56.90
17795;DHT22;9021;50.882;4.326;2023-03-01T14:45:55;14.40;57.60
17795;DHT22;9021;50.882;4.326;2023-03-01T14:48:21;14.60;57.50
17795;DHT22;9021;50.882;4.326;2023-03-01T14:50:47;14.70;57.20
17795;DHT22;9021;50.882;4.326;2023-03-01T14:53:18;14.70;57.70
17795;DHT22;9021;50.882;4.326;2023-03-01T14:55:46;14.40;57.80
17795;DHT22;9021;50.882;4.326;2023-03-01T14:58:15;14.30;57.80
17795;DHT22;9021;50.882;4.326;2023-03-01T15:00:49;14.30;58.40
17795;DHT22;9021;50.882;4.326;2023-03-01T15:06:06;14.00;58.50
17795;DHT22;9021;50.882;4.326;2023-03-01T15:08:32;13.70;57.90
17795;DHT22;9021;50.882;4.326;2023-03-01T15:11:20;13.40;58.20
17795;DHT22;9021;50.882;4.326;2023-03-01T15:13:44;13.30;59.40
17795;DHT22;9021;50.882;4.326;2023-03-01T15:16:31;13.30;58.90
17795;DHT22;9021;50.882;4.326;2023-03-01T15:19:03;12.80;59.00
17795;DHT22;9021;50.882;4.326;2023-03-01T15:21:38;12.70;59.00
17795;DHT22;9021;50.882;4.326;2023-03-01T15:24:16;12.50;59.50
17795;DHT22;9021;50.882;4.326;2023-03-01T15:29:21;12.40;59.40
17795;DHT22;9021;50.882;4.326;2023-03-01T15:32:02;12.10;60.50
17795;DHT22;9021;50.882;4.326;2023-03-01T15:34:36;12.40;61.10
17795;DHT22;9021;50.882;4.326;2023-03-01T15:37:33;12.30;60.60
17795;DHT22;9021;50.882;4.326;2023-03-01T15:39:54;12.50;60.80
17795;DHT22;9021;50.882;4.326;2023-03-01T15:47:48;12.30;61.00
17795;DHT22;9021;50.882;4.326;2023-03-01T15:50:22;12.30;60.70
17795;DHT22;9021;50.882;4.326;2023-03-01T15:52:47;12.30;61.20
17795;DHT22;9021;50.882;4.326;2023-03-01T15:55:18;12.20;60.90
17795;DHT22;9021;50.882;4.326;2023-03-01T15:57:44;12.00;61.30
17795;DHT22;9021;50.882;4.326;2023-03-01T16:00:11;11.90;61.80
17795;DHT22;9021;50.882;4.326;2023-03-01T16:02:39;11.80;61.30
17795;DHT22;9021;50.882;4.326;2023-03-01T16:05:05;11.80;62.90
17795;DHT22;9021;50.882;4.326;2023-03-01T16:07:31;11.80;63.10
17795;DHT22;9021;50.882;4.326;2023-03-01T16:09:57;11.80;62.30
17795;DHT22;9021;50.882;4.326;2023-03-01T16:12:23;11.70;62.80
17795;DHT22;9021;50.882;4.326;2023-03-01T16:14:49;11.60;61.80
17795;DHT22;9021;50.882;4.326;2023-03-01T16:17:15;11.40;62.60
17795;DHT22;9021;50.882;4.326;2023-03-01T16:19:41;10.90;62.10
17795;DHT22;9021;50.882;4.326;2023-03-01T16:22:09;10.70;63.30
17795;DHT22;9021;50.882;4.326;2023-03-01T16:24:35;10.70;63.10
17795;DHT22;9021;50.882;4.326;2023-03-01T16:27:01;10.30;63.60
17795;DHT22;9021;50.882;4.326;2023-03-01T16:29:27;10.10;63.90
17795;DHT22;9021;50.882;4.326;2023-03-01T16:31:54;10.10;64.00
17795;DHT22;9021;50.882;4.326;2023-03-01T16:34:20;10.20;63.90
17795;DHT22;9021;50.882;4.326;2023-03-01T16:36:47;10.30;64.00
17795;DHT22;9021;50.882;4.326;2023-03-01T16:39:12;10.00;63.70
17795;DHT22;9021;50.882;4.326;2023-03-01T16:41:38;10.30;65.50
17795;DHT22;9021;50.882;4.326;2023-03-01T16:44:03;10.20;64.30
17795;DHT22;9021;50.882;4.326;2023-03-01T16:46:29;10.20;64.30
17795;DHT22;9021;50.882;4.326;2023-03-01T16:48:55;10.10;64.60
17795;DHT22;9021;50.882;4.326;2023-03-01T16:51:22;10.10;64.70
17795;DHT22;9021;50.882;4.326;2023-03-01T16:53:49;10.10;64.80
17795;DHT22;9021;50.882;4.326;2023-03-01T16:56:15;10.00;64.70
17795;DHT22;9021;50.882;4.326;2023-03-01T16:58:41;10.10;65.80
17795;DHT22;9021;50.882;4.326;2023-03-01T17:01:18;9.90;65.70
17795;DHT22;9021;50.882;4.326;2023-03-01T17:03:45;9.90;65.60
17795;DHT22;9021;50.882;4.326;2023-03-01T17:06:16;9.90;65.90
17795;DHT22;9021;50.882;4.326;2023-03-01T17:08:42;9.90;65.80
17795;DHT22;9021;50.882;4.326;2023-03-01T17:11:13;9.70;65.70
17795;DHT22;9021;50.882;4.326;2023-03-01T17:13:40;9.70;66.80
17795;DHT22;9021;50.882;4.326;2023-03-01T17:16:11;9.70;66.60
17795;DHT22;9021;50.882;4.326;2023-03-01T17:18:37;9.50;66.60
17795;DHT22;9021;50.882;4.326;2023-03-01T17:21:03;9.60;66.40
17795;DHT22;9021;50.882;4.326;2023-03-01T17:23:30;9.50;66.70
17795;DHT22;9021;50.882;4.326;2023-03-01T17:25:57;9.40;66.40
17795;DHT22;9021;50.882;4.326;2023-03-01T17:28:23;9.10;66.90
17795;DHT22;9021;50.882;4.326;2023-03-01T17:30:49;9.00;67.50
17795;DHT22;9021;50.882;4.326;2023-03-01T17:33:15;8.90;67.50
17795;DHT22;9021;50.882;4.326;2023-03-01T17:35:41;9.00;68.50
17795;DHT22;9021;50.882;4.326;2023-03-01T17:38:06;9.00;68.90
17795;DHT22;9021;50.882;4.326;2023-03-01T17:40:33;8.90;68.70
17795;DHT22;9021;50.882;4.326;2023-03-01T17:43:00;8.90;68.70
17795;DHT22;9021;50.882;4.326;2023-03-01T17:45:27;9.20;68.40
17795;DHT22;9021;50.882;4.326;2023-03-01T17:47:52;8.90;69.00
17795;DHT22;9021;50.882;4.326;2023-03-01T17:50:18;8.80;68.20